createdAt,value
2022-12-11T00:02:06.399Z,100764.02
2022-12-11T00:04:58.675Z,100769.73
2022-12-11T00:07:51.329Z,100768.52
2022-12-11T00:10:50.703Z,100763.59
2022-12-11T00:13:43.427Z,100758.71
2022-12-11T00:16:35.720Z,100758.85
2022-12-11T00:19:28.022Z,100753.25
2022-12-11T00:22:20.221Z,100755.80
2022-12-11T00:25:13.094Z,100753.65
2022-12-11T00:28:05.569Z,100749.38
2022-12-11T00:30:58.028Z,100751.39
2022-12-11T00:33:52.352Z,100751.14
2022-12-11T00:36:44.682Z,100747.86
2022-12-11T00:39:39.976Z,100748.17
2022-12-11T00:42:32.066Z,100749.26
2022-12-11T00:45:25.689Z,100745.61
2022-12-11T00:48:18.217Z,100745.23
2022-12-11T00:51:11.805Z,100751.50
2022-12-11T00:54:04.433Z,100755.20
2022-12-11T00:56:58.177Z,100753.95
2022-12-11T00:59:50.365Z,100759.13
2022-12-11T01:02:42.543Z,100759.09
2022-12-11T01:05:35.552Z,100755.83
2022-12-11T01:08:27.730Z,100756.35
2022-12-11T01:11:21.105Z,100754.69
2022-12-11T01:14:14.121Z,100750.50
2022-12-11T01:17:06.111Z,100749.35
2022-12-11T01:19:58.397Z,100746.83
2022-12-11T01:22:53.185Z,100743.83
2022-12-11T01:25:45.910Z,100743.04
2022-12-11T01:28:38.491Z,100743.47
2022-12-11T01:31:30.727Z,100740.64
2022-12-11T01:34:23.162Z,100742.30
2022-12-11T01:37:15.671Z,100741.55
2022-12-11T01:40:09.812Z,100742.11
2022-12-11T01:43:02.138Z,100742.83
2022-12-11T01:45:54.513Z,100740.56
2022-12-11T01:48:46.855Z,100740.89
2022-12-11T01:51:45.571Z,100743.39
2022-12-11T01:54:38.165Z,100746.04
2022-12-11T01:57:31.100Z,100746.10
2022-12-11T02:00:23.868Z,100742.68
2022-12-11T02:03:16.162Z,100733.70
2022-12-11T02:06:22.162Z,100728.57
2022-12-11T02:09:17.796Z,100728.35
2022-12-11T02:12:18.261Z,100722.61
2022-12-11T02:15:18.630Z,100718.95
2022-12-11T02:18:15.108Z,100722.12
2022-12-11T02:21:12.553Z,100722.85
2022-12-11T02:24:32.555Z,100728.22
2022-12-11T02:27:33.583Z,100735.34
2022-12-11T02:30:26.738Z,100745.38
2022-12-11T02:33:23.068Z,100751.25
2022-12-11T02:36:19.003Z,100752.36
2022-12-11T02:39:13.796Z,100753.55
2022-12-11T02:42:08.317Z,100753.20
2022-12-11T02:45:03.116Z,100751.46
2022-12-11T02:47:57.379Z,100757.02
2022-12-11T02:50:51.813Z,100756.42
2022-12-11T02:53:46.782Z,100753.92
2022-12-11T02:56:43.593Z,100756.73
2022-12-11T02:59:38.427Z,100755.13
2022-12-11T03:02:30.480Z,100749.55
2022-12-11T03:05:22.881Z,100746.02
2022-12-11T03:08:17.721Z,100741.19
2022-12-11T03:11:13.205Z,100739.52
2022-12-11T03:14:06.088Z,100733.15
2022-12-11T03:17:05.107Z,100731.13
2022-12-11T03:20:05.961Z,100734.93
2022-12-11T03:23:04.270Z,100734.70
2022-12-11T03:25:58.695Z,100739.22
2022-12-11T03:28:56.890Z,100741.10
2022-12-11T03:31:55.277Z,100741.41
2022-12-11T03:34:53.483Z,100736.04
2022-12-11T03:37:52.646Z,100731.38
2022-12-11T03:40:48.295Z,100731.54
2022-12-11T03:43:41.915Z,100726.88
2022-12-11T03:46:37.448Z,100724.92
2022-12-11T03:49:35.017Z,100729.77
2022-12-11T03:52:30.636Z,100731.47
2022-12-11T03:55:24.251Z,100734.88
2022-12-11T03:58:16.488Z,100731.36
2022-12-11T04:01:12.089Z,100733.73
2022-12-11T04:04:07.281Z,100732.14
2022-12-11T04:06:59.611Z,100728.77
2022-12-11T04:09:52.083Z,100729.67
2022-12-11T04:12:45.563Z,100730.14
2022-12-11T04:15:39.301Z,100731.10
2022-12-11T04:19:06.811Z,100729.53
2022-12-11T04:22:16.796Z,100726.17
2022-12-11T04:25:10.665Z,100729.16
2022-12-11T04:28:03.198Z,100728.73
2022-12-11T04:30:55.544Z,100735.08
2022-12-11T04:33:48.157Z,100734.58
2022-12-11T04:36:40.426Z,100732.27
2022-12-11T04:39:33.136Z,100733.80
2022-12-11T04:42:25.467Z,100726.42
2022-12-11T04:45:18.061Z,100710.33
2022-12-11T04:48:10.452Z,100715.45
2022-12-11T04:51:02.999Z,100718.45
2022-12-11T04:53:55.773Z,100714.38
2022-12-11T04:56:48.137Z,100711.47
2022-12-11T04:59:40.503Z,100709.92
2022-12-11T05:02:35.381Z,100707.35
2022-12-11T05:05:28.054Z,100704.72
2022-12-11T05:08:20.871Z,100707.64
2022-12-11T05:11:14.984Z,100709.41
2022-12-11T05:14:07.327Z,100710.56
2022-12-11T05:16:59.987Z,100713.39
2022-12-11T05:19:53.007Z,100719.09
2022-12-11T05:22:45.448Z,100727.29
2022-12-11T05:25:37.678Z,100733.42
2022-12-11T05:28:31.679Z,100738.15
2022-12-11T05:31:25.230Z,100739.59
2022-12-11T05:34:17.549Z,100735.98
2022-12-11T05:37:09.823Z,100735.98
2022-12-11T05:40:02.197Z,100731.51
2022-12-11T05:42:54.379Z,100730.45
2022-12-11T05:45:46.626Z,100735.80
2022-12-11T05:48:39.498Z,100734.94
2022-12-11T05:51:34.422Z,100739.33
2022-12-11T05:54:26.350Z,100741.40
2022-12-11T05:57:18.631Z,100752.20
2022-12-11T06:00:12.536Z,100746.47
2022-12-11T06:03:05.194Z,100746.14
2022-12-11T06:05:57.546Z,100740.65
2022-12-11T06:08:52.686Z,100742.23
2022-12-11T06:11:44.935Z,100741.30
2022-12-11T06:14:37.053Z,100741.70
2022-12-11T06:17:29.252Z,100742.19
2022-12-11T06:20:21.680Z,100746.30
2022-12-11T06:23:13.934Z,100750.56
2022-12-11T06:26:08.303Z,100749.17
2022-12-11T06:29:00.716Z,100749.16
2022-12-11T06:31:53.039Z,100752.05
2022-12-11T06:34:45.356Z,100747.16
2022-12-11T06:37:38.014Z,100747.85
2022-12-11T06:40:30.450Z,100745.92
2022-12-11T06:43:22.720Z,100746.50
2022-12-11T06:46:17.285Z,100746.23
2022-12-11T06:49:09.397Z,100744.00
2022-12-11T06:52:01.687Z,100741.48
2022-12-11T06:54:54.026Z,100739.13
2022-12-11T06:57:46.315Z,100734.48
2022-12-11T07:00:39.908Z,100738.09
2022-12-11T07:03:32.062Z,100737.38
2022-12-11T07:06:24.985Z,100733.63
2022-12-11T07:09:17.386Z,100736.16
2022-12-11T07:12:10.627Z,100734.31
2022-12-11T07:15:03.006Z,100734.58
2022-12-11T07:17:55.324Z,100738.41
2022-12-11T07:20:48.107Z,100741.08
2022-12-11T07:23:40.743Z,100739.96
2022-12-11T07:26:33.023Z,100735.30
2022-12-11T07:29:25.351Z,100741.59
2022-12-11T07:32:17.811Z,100748.84
2022-12-11T07:35:11.187Z,100753.15
2022-12-11T07:38:03.889Z,100757.18
2022-12-11T07:40:56.205Z,100760.91
2022-12-11T07:43:48.588Z,100758.51
2022-12-11T07:46:41.501Z,100751.09
2022-12-11T07:49:33.920Z,100749.80
2022-12-11T07:52:26.631Z,100750.15
2022-12-11T07:55:18.997Z,100752.84
2022-12-11T07:58:11.449Z,100754.88
2022-12-11T08:01:03.819Z,100758.91
2022-12-11T08:03:57.207Z,100763.27
2022-12-11T08:06:49.083Z,100764.64
2022-12-11T08:09:47.988Z,100764.06
2022-12-11T08:12:40.350Z,100769.32
2022-12-11T08:15:32.571Z,100764.90
2022-12-11T08:18:24.954Z,100762.58
2022-12-11T08:21:18.937Z,100764.63
2022-12-11T08:24:11.690Z,100771.95
2022-12-11T08:27:03.912Z,100776.78
2022-12-11T08:29:56.461Z,100775.17
2022-12-11T08:32:48.787Z,100777.79
2022-12-11T08:35:44.276Z,100779.66
2022-12-11T08:38:36.154Z,100779.97
2022-12-11T08:41:30.309Z,100783.10
2022-12-11T08:44:25.259Z,100788.56
2022-12-11T08:47:17.486Z,100784.19
2022-12-11T08:50:10.530Z,100785.18
2022-12-11T08:53:02.761Z,100785.80
2022-12-11T08:55:54.885Z,100788.59
2022-12-11T08:58:48.030Z,100792.80
2022-12-11T09:01:39.849Z,100793.83
2022-12-11T09:04:32.420Z,100794.11
2022-12-11T09:07:24.708Z,100800.77
2022-12-11T09:10:16.914Z,100808.29
2022-12-11T09:13:09.230Z,100808.59
2022-12-11T09:16:01.591Z,100808.74
2022-12-11T09:18:59.117Z,100812.08
2022-12-11T09:21:51.175Z,100808.48
2022-12-11T09:24:43.563Z,100808.54
2022-12-11T09:27:37.152Z,100806.52
2022-12-11T09:30:29.343Z,100804.36
2022-12-11T09:33:21.695Z,100803.86
2022-12-11T09:36:14.742Z,100802.05
2022-12-11T09:39:09.108Z,100807.14
2022-12-11T09:42:09.309Z,100805.27
2022-12-11T09:45:03.223Z,100807.73
2022-12-11T09:47:57.383Z,100804.56
2022-12-11T09:50:52.897Z,100804.73
2022-12-11T09:53:44.728Z,100803.27
2022-12-11T09:56:43.788Z,100810.64
2022-12-11T09:59:45.321Z,100802.63
2022-12-11T10:02:51.326Z,100797.08
2022-12-11T10:05:51.456Z,100797.90
2022-12-11T10:08:53.778Z,100800.98
2022-12-11T10:12:07.985Z,100797.48
2022-12-11T10:15:18.589Z,100798.89
2022-12-11T10:18:17.327Z,100796.71
2022-12-11T10:21:10.912Z,100791.48
2022-12-11T10:24:11.620Z,100795.78
2022-12-11T10:27:15.490Z,100795.36
2022-12-11T10:30:16.298Z,100793.45
2022-12-11T10:33:18.414Z,100797.42
2022-12-11T10:36:11.955Z,100803.30
2022-12-11T10:39:05.017Z,100807.36
2022-12-11T10:41:58.195Z,100807.27
2022-12-11T10:45:01.796Z,100805.52
2022-12-11T10:48:02.903Z,100807.23
2022-12-11T10:51:07.276Z,100810.69
2022-12-11T10:54:07.277Z,100810.11
2022-12-11T10:57:00.620Z,100812.45
2022-12-11T10:59:54.047Z,100808.49
2022-12-11T11:02:48.369Z,100802.95
2022-12-11T11:05:44.922Z,100800.94
2022-12-11T11:08:45.835Z,100799.50
2022-12-11T11:11:39.615Z,100795.84
2022-12-11T11:14:31.798Z,100799.80
2022-12-11T11:17:23.979Z,100799.99
2022-12-11T11:20:20.108Z,100799.75
2022-12-11T11:23:17.256Z,100798.74
2022-12-11T11:26:13.210Z,100793.17
2022-12-11T11:29:06.215Z,100791.39
2022-12-11T11:31:58.660Z,100790.45
2022-12-11T11:34:51.094Z,100788.25
2022-12-11T11:37:46.753Z,100787.93
2022-12-11T11:40:43.828Z,100785.77
2022-12-11T11:43:43.851Z,100782.89
2022-12-11T11:46:40.669Z,100782.85
2022-12-11T11:49:45.834Z,100777.48
2022-12-11T11:52:45.590Z,100772.03
2022-12-11T11:55:48.515Z,100751.83
2022-12-11T11:58:46.996Z,100745.39
2022-12-11T12:01:39.161Z,100739.80
2022-12-11T12:04:35.327Z,100732.69
2022-12-11T12:07:40.821Z,100726.59
2022-12-11T12:10:44.741Z,100722.57
2022-12-11T12:13:50.603Z,100717.36
2022-12-11T12:16:53.650Z,100712.67
2022-12-11T12:19:53.186Z,100719.55
2022-12-11T12:23:08.315Z,100717.08
2022-12-11T12:26:07.993Z,100723.83
2022-12-11T12:29:12.292Z,100725.20
2022-12-11T12:32:11.005Z,100730.13
2022-12-11T12:35:16.971Z,100731.66
2022-12-11T12:38:17.007Z,100730.65
2022-12-11T12:41:19.795Z,100735.23
2022-12-11T12:44:19.575Z,100734.30
2022-12-11T12:47:16.113Z,100734.23
2022-12-11T12:50:14.823Z,100738.58
2022-12-11T12:53:25.354Z,100738.08
2022-12-11T12:56:18.409Z,100737.89
2022-12-11T12:59:22.257Z,100740.92
2022-12-11T13:02:18.808Z,100745.08
2022-12-11T13:05:24.927Z,100741.51
2022-12-11T13:08:29.043Z,100742.73
2022-12-11T13:11:31.547Z,100742.31
2022-12-11T13:14:32.761Z,100744.39
2022-12-11T13:17:39.036Z,100742.52
2022-12-11T13:20:32.349Z,100745.19
2022-12-11T13:23:31.265Z,100746.23
2022-12-11T13:26:33.018Z,100746.57
2022-12-11T13:29:39.623Z,100740.89
2022-12-11T13:32:34.588Z,100743.10
2022-12-11T13:35:27.678Z,100745.16
2022-12-11T13:38:22.387Z,100748.56
2022-12-11T13:41:20.063Z,100744.60
2022-12-11T13:44:21.493Z,100745.79
2022-12-11T13:47:18.825Z,100749.89
2022-12-11T13:50:20.080Z,100749.75
2022-12-11T13:53:19.398Z,100755.55
2022-12-11T13:56:20.063Z,100760.42
2022-12-11T13:59:25.942Z,100757.00
2022-12-11T14:02:22.865Z,100758.14
2022-12-11T14:05:16.420Z,100755.36
2022-12-11T14:08:11.849Z,100753.77
2022-12-11T14:11:05.645Z,100751.34
2022-12-11T14:14:01.182Z,100751.82
2022-12-11T14:16:54.148Z,100750.07
2022-12-11T14:19:50.744Z,100751.34
2022-12-11T14:22:42.764Z,100751.51
2022-12-11T14:25:35.195Z,100750.06
2022-12-11T14:28:29.272Z,100749.45
2022-12-11T14:31:25.741Z,100749.91
2022-12-11T14:34:24.880Z,100746.47
2022-12-11T14:37:19.180Z,100747.60
2022-12-11T14:40:17.516Z,100753.22
2022-12-11T14:43:13.973Z,100753.23
2022-12-11T14:46:10.423Z,100754.55
2022-12-11T14:49:07.934Z,100753.94
2022-12-11T14:52:01.492Z,100754.41
2022-12-11T14:54:58.443Z,100754.20
2022-12-11T14:57:55.441Z,100753.84
2022-12-11T15:00:57.709Z,100752.65
2022-12-11T15:03:50.262Z,100747.55
2022-12-11T15:06:48.803Z,100747.34
2022-12-11T15:09:42.699Z,100744.70
2022-12-11T15:12:35.185Z,100745.40
2022-12-11T15:15:29.603Z,100743.39
2022-12-11T15:18:25.589Z,100746.28
2022-12-11T15:21:17.694Z,100751.96
2022-12-11T15:24:27.402Z,100750.63
2022-12-11T15:27:31.808Z,100747.40
2022-12-11T15:30:43.454Z,100751.42
2022-12-11T15:33:46.577Z,100755.13
2022-12-11T15:36:39.528Z,100755.91
2022-12-11T15:39:32.911Z,100752.15
2022-12-11T15:42:29.019Z,100753.42
2022-12-11T15:45:22.941Z,100754.54
2022-12-11T15:48:15.099Z,100753.51
2022-12-11T15:51:07.535Z,100749.00
2022-12-11T15:53:59.788Z,100752.30
2022-12-11T15:56:52.044Z,100753.63
2022-12-11T15:59:45.041Z,100749.69
2022-12-11T16:02:37.719Z,100753.40
2022-12-11T16:05:30.264Z,100750.23
2022-12-11T16:08:24.112Z,100750.35
2022-12-11T16:11:17.230Z,100750.67
2022-12-11T16:14:09.420Z,100753.14
2022-12-11T16:17:01.717Z,100754.98
2022-12-11T16:19:54.868Z,100752.51
2022-12-11T16:22:46.998Z,100757.98
2022-12-11T16:25:40.542Z,100755.70
2022-12-11T16:28:32.713Z,100755.74
2022-12-11T16:31:24.911Z,100754.27
2022-12-11T16:34:17.113Z,100748.79
2022-12-11T16:37:10.661Z,100748.90
2022-12-11T16:40:02.814Z,100745.14
2022-12-11T16:42:55.811Z,100743.19
2022-12-11T16:45:48.024Z,100741.79
2022-12-11T16:48:40.220Z,100738.70
2022-12-11T16:51:32.657Z,100739.33
2022-12-11T16:54:24.841Z,100739.05
2022-12-11T16:57:17.204Z,100737.09
2022-12-11T17:00:12.221Z,100738.86
2022-12-11T17:03:04.479Z,100737.52
2022-12-11T17:05:57.173Z,100738.34
2022-12-11T17:08:49.998Z,100742.19
2022-12-11T17:11:43.277Z,100742.05
2022-12-11T17:14:35.559Z,100743.41
2022-12-11T17:17:27.825Z,100748.70
2022-12-11T17:20:21.507Z,100749.33
2022-12-11T17:23:14.686Z,100751.60
2022-12-11T17:26:09.013Z,100750.89
2022-12-11T17:29:01.937Z,100750.50
2022-12-11T17:31:54.261Z,100751.95
2022-12-11T17:34:48.336Z,100751.45
2022-12-11T17:37:40.205Z,100752.29
2022-12-11T17:40:32.453Z,100754.02
2022-12-11T17:43:24.886Z,100753.38
2022-12-11T17:46:17.247Z,100748.17
2022-12-11T17:49:09.534Z,100748.90
2022-12-11T17:52:02.265Z,100746.91
2022-12-11T17:54:55.335Z,100747.91
2022-12-11T17:57:47.851Z,100747.14
2022-12-11T18:00:41.408Z,100748.53
2022-12-11T18:03:33.338Z,100745.71
2022-12-11T18:06:25.632Z,100744.98
2022-12-11T18:09:17.993Z,100743.34
2022-12-11T18:12:11.073Z,100744.66
2022-12-11T18:15:04.959Z,100747.95
2022-12-11T18:17:59.780Z,100746.60
2022-12-11T18:20:52.307Z,100746.71
2022-12-11T18:23:44.824Z,100745.20
2022-12-11T18:26:38.051Z,100741.11
2022-12-11T18:29:30.447Z,100743.65
2022-12-11T18:32:22.598Z,100745.13
2022-12-11T18:35:15.473Z,100743.48
2022-12-11T18:38:07.654Z,100741.89
2022-12-11T18:40:59.975Z,100742.66
2022-12-11T18:43:54.839Z,100737.17
2022-12-11T18:46:47.246Z,100733.81
2022-12-11T18:49:39.918Z,100734.56
2022-12-11T18:52:32.295Z,100735.45
2022-12-11T18:55:24.881Z,100733.34
2022-12-11T18:58:20.746Z,100732.80
2022-12-11T19:01:15.243Z,100731.60
2022-12-11T19:04:11.121Z,100730.30
2022-12-11T19:07:04.177Z,100730.23
2022-12-11T19:09:56.542Z,100733.90
2022-12-11T19:12:49.592Z,100731.66
2022-12-11T19:15:45.462Z,100733.19
2022-12-11T19:18:37.753Z,100731.59
2022-12-11T19:21:30.375Z,100729.82
2022-12-11T19:24:24.878Z,100730.60
2022-12-11T19:27:17.109Z,100726.55
2022-12-11T19:30:12.601Z,100723.78
2022-12-11T19:33:04.547Z,100722.75
2022-12-11T19:36:05.223Z,100723.49
2022-12-11T19:39:01.945Z,100727.01
2022-12-11T19:41:55.234Z,100728.39
2022-12-11T19:44:47.416Z,100728.48
2022-12-11T19:47:39.699Z,100730.09
2022-12-11T19:50:31.834Z,100725.75
2022-12-11T19:53:24.080Z,100722.96
2022-12-11T19:56:22.313Z,100720.51
2022-12-11T19:59:16.877Z,100718.01
2022-12-11T20:02:11.314Z,100715.44
2022-12-11T20:05:03.774Z,100717.02
2022-12-11T20:08:02.120Z,100717.16
2022-12-11T20:11:14.318Z,100713.65
2022-12-11T20:14:09.774Z,100711.55
2022-12-11T20:17:12.331Z,100711.71
2022-12-11T20:20:05.123Z,100710.48
2022-12-11T20:22:59.975Z,100709.35
2022-12-11T20:25:57.428Z,100709.98
2022-12-11T20:28:52.994Z,100706.77
2022-12-11T20:31:45.842Z,100712.20
2022-12-11T20:34:38.173Z,100709.90
2022-12-11T20:37:30.531Z,100709.21
2022-12-11T20:40:22.951Z,100712.27
2022-12-11T20:43:15.529Z,100712.02
2022-12-11T20:46:09.957Z,100710.23
2022-12-11T20:49:03.511Z,100708.17
2022-12-11T20:51:55.744Z,100706.61
2022-12-11T20:54:48.047Z,100708.85
2022-12-11T21:01:08.626Z,100715.85
2022-12-11T21:04:01.446Z,100713.62
2022-12-11T21:06:56.524Z,100710.02
2022-12-11T21:09:48.759Z,100711.39
2022-12-11T21:12:47.307Z,100713.48
2022-12-11T21:15:40.260Z,100714.59
2022-12-11T21:18:33.266Z,100714.84
2022-12-11T21:21:25.970Z,100715.95
2022-12-11T21:24:20.693Z,100720.67
2022-12-11T21:27:12.756Z,100718.29
2022-12-11T21:30:05.724Z,100716.94
2022-12-11T21:32:57.975Z,100719.95
2022-12-11T21:35:57.121Z,100718.86
2022-12-11T21:38:49.698Z,100722.21
2022-12-11T21:41:42.176Z,100721.55
2022-12-11T21:45:31.465Z,100723.76
2022-12-11T21:47:46.952Z,100723.77
2022-12-11T21:50:39.435Z,100723.80
2022-12-11T21:53:32.103Z,100720.13
2022-12-11T21:56:25.723Z,100719.04
2022-12-11T21:59:18.245Z,100716.81
2022-12-11T22:02:12.251Z,100718.26
2022-12-11T22:05:04.992Z,100716.89
2022-12-11T22:07:57.249Z,100716.00
2022-12-11T22:10:49.715Z,100714.64
2022-12-11T22:13:42.246Z,100718.94
2022-12-11T22:16:35.097Z,100718.20
2022-12-11T22:19:32.320Z,100717.16
2022-12-11T22:22:25.111Z,100716.69
2022-12-11T22:25:18.050Z,100720.14
2022-12-11T22:28:10.323Z,100720.70
2022-12-11T22:31:03.069Z,100718.40
2022-12-11T22:33:56.917Z,100718.51
2022-12-11T22:36:49.445Z,100717.63
2022-12-11T22:39:41.801Z,100720.72
2022-12-11T22:42:34.687Z,100719.82
2022-12-11T22:45:27.031Z,100717.98
2022-12-11T22:48:19.794Z,100715.38
2022-12-11T22:51:12.873Z,100714.32
2022-12-11T22:54:05.230Z,100716.71
2022-12-11T22:56:57.467Z,100723.45
2022-12-11T22:59:49.964Z,100719.96
2022-12-11T23:02:43.125Z,100717.31
2022-12-11T23:05:35.172Z,100718.69
2022-12-11T23:08:27.536Z,100720.77
2022-12-11T23:11:22.310Z,100725.02
2022-12-11T23:14:18.624Z,100726.64
2022-12-11T23:17:10.784Z,100723.80
2022-12-11T23:20:04.142Z,100725.56
2022-12-11T23:22:56.370Z,100726.71
2022-12-11T23:25:48.686Z,100726.36
2022-12-11T23:28:41.925Z,100726.82
2022-12-11T23:31:34.245Z,100728.94
2022-12-11T23:34:26.532Z,100721.08
2022-12-11T23:37:18.821Z,100719.08
2022-12-11T23:40:14.393Z,100716.31
2022-12-11T23:43:06.559Z,100714.98
2022-12-11T23:45:58.824Z,100712.71
2022-12-11T23:48:51.448Z,100710.79
2022-12-11T23:51:43.867Z,100709.10
2022-12-11T23:54:36.129Z,100710.77
2022-12-11T23:57:28.455Z,100708.28
